Terminal Aerodrome Forecast
Issued by NWS Sterling, VA

Home | Current Version | Previous Version | Text Only | Print | Product List | Glossary On
Versions: 1 2 3 4 5 6 7 8 9 10 11 12 13 14 15 16 17 18 19 20 21 22
000
FTUS41 KLWX 171459 AAA
TAFIAD
TAF AMD
KIAD 171459Z 1715/1818 15004KT 3SM -SHRA BR OVC006
     FM171600 16004KT 3SM BR OVC011
     FM172100 19009KT P6SM BKN015
     FM180000 19007KT 6SM BR BKN008
     FM180900 28005KT 6SM BR BKN050
     FM181500 30010KT P6SM BKN045=

USA.gov is the U.S. government's official web portal to all federal, state and local government web resources and services.